Time;durP1;ratioP1;P1;durP2;ratioP2;P2;SDS_P1;SDS_P2;PMS_P1;PMS_P2;Temp;Humidity;BMP_temperature;BMP_pressure;BME280_temperature;BME280_humidity;BME280_pressure;Samples;Min_cycle;Max_cycle;Signal;HPM_P1;HPM_P2
2023/07/18 00:00:42;;;;;;;10.98;3.80;;;11.60;99.90;;;;;;4957390;28;20051;-81
2023/07/18 00:03:08;;;;;;;10.35;3.22;;;11.60;99.90;;;;;;4961571;28;20042;-81
2023/07/18 00:05:36;;;;;;;9.80;3.22;;;11.60;99.90;;;;;;4963397;28;20062;-80
2023/07/18 00:08:01;;;;;;;11.60;4.22;;;11.60;99.90;;;;;;4975181;28;20046;-81
2023/07/18 00:10:27;;;;;;;10.20;3.70;;;11.60;99.90;;;;;;4969195;28;20057;-81
2023/07/18 00:12:57;;;;;;;16.98;3.55;;;11.60;99.90;;;;;;4979150;28;20066;-81
2023/07/18 00:15:24;;;;;;;14.77;3.60;;;11.60;99.90;;;;;;4952944;28;20057;-80
2023/07/18 00:17:50;;;;;;;13.02;3.60;;;11.50;99.90;;;;;;4973249;28;20051;-81
2023/07/18 00:20:19;;;;;;;9.57;3.03;;;11.40;99.90;;;;;;4979891;28;20574;-82
2023/07/18 00:22:49;;;;;;;5.53;2.88;;;11.50;99.90;;;;;;4975432;28;20153;-81
2023/07/18 00:25:18;;;;;;;10.32;3.20;;;11.40;99.90;;;;;;4975689;28;20145;-81
2023/07/18 00:27:53;;;;;;;13.75;4.10;;;11.40;99.90;;;;;;4975593;28;20555;-80
2023/07/18 00:30:20;;;;;;;7.72;2.95;;;11.40;99.90;;;;;;4972110;28;20069;-81
2023/07/18 00:32:46;;;;;;;10.48;3.35;;;11.40;99.90;;;;;;4967698;28;20061;-81
2023/07/18 00:35:14;;;;;;;8.70;3.30;;;11.40;99.90;;;;;;4975570;28;20126;-81
2023/07/18 00:37:40;;;;;;;12.80;3.67;;;11.40;99.90;;;;;;4968159;28;20062;-83
2023/07/18 00:40:11;;;;;;;10.50;3.63;;;11.30;99.90;;;;;;4973589;28;20187;-83
2023/07/18 00:42:42;;;;;;;9.15;3.50;;;11.30;99.90;;;;;;4978088;28;20046;-81
2023/07/18 00:45:10;;;;;;;11.27;3.10;;;11.30;99.90;;;;;;4974103;28;20061;-81
2023/07/18 00:47:40;;;;;;;12.23;3.55;;;11.30;99.90;;;;;;4958870;28;20069;-80
2023/07/18 00:50:14;;;;;;;11.80;4.72;;;11.30;99.90;;;;;;4963007;28;20050;-81
2023/07/18 00:52:43;;;;;;;10.43;4.22;;;11.30;99.90;;;;;;4981048;28;20415;-80
2023/07/18 00:55:13;;;;;;;9.80;3.58;;;11.30;99.90;;;;;;4980168;28;20572;-81
2023/07/18 00:57:40;;;;;;;12.77;3.60;;;11.30;99.90;;;;;;4968949;28;20424;-80
2023/07/18 01:00:11;;;;;;;12.45;4.13;;;11.30;99.90;;;;;;4978823;28;20061;-80
2023/07/18 01:02:39;;;;;;;8.27;3.38;;;11.30;99.90;;;;;;4978707;28;20054;-82
2023/07/18 01:05:06;;;;;;;14.60;3.42;;;11.30;99.90;;;;;;4965299;28;20059;-79
2023/07/18 01:07:33;;;;;;;11.93;3.50;;;11.20;99.90;;;;;;4974163;28;21037;-81
2023/07/18 01:10:17;;;;;;;9.50;3.35;;;11.20;99.90;;;;;;4971172;28;20050;-80
2023/07/18 01:12:44;;;;;;;12.18;3.47;;;11.20;99.90;;;;;;4989031;28;20066;-80
2023/07/18 01:15:12;;;;;;;9.43;3.40;;;11.20;99.90;;;;;;4965515;28;20058;-80
2023/07/18 01:17:49;;;;;;;12.43;3.88;;;11.20;99.90;;;;;;4965871;28;20197;-79
2023/07/18 01:20:27;;;;;;;12.48;3.90;;;11.20;99.90;;;;;;4973555;28;20236;-81
2023/07/18 01:22:58;;;;;;;11.60;4.15;;;11.20;99.90;;;;;;4973673;28;20049;-81
2023/07/18 01:25:24;;;;;;;16.15;5.30;;;11.20;99.90;;;;;;4970684;28;20501;-80
2023/07/18 01:27:52;;;;;;;18.52;4.55;;;11.20;99.90;;;;;;4979550;28;20076;-81
2023/07/18 01:30:21;;;;;;;14.18;5.40;;;11.20;99.90;;;;;;4967062;28;20050;-80
2023/07/18 01:32:52;;;;;;;13.60;4.93;;;11.20;99.90;;;;;;4973289;28;20126;-78
2023/07/18 01:35:25;;;;;;;12.40;4.25;;;11.20;99.90;;;;;;4972135;28;20149;-81
2023/07/18 01:37:56;;;;;;;9.32;4.57;;;11.20;99.90;;;;;;4979233;28;20101;-80
2023/07/18 01:40:23;;;;;;;13.80;4.95;;;11.20;99.90;;;;;;4973052;28;20050;-80
2023/07/18 01:42:53;;;;;;;9.85;4.47;;;11.20;99.90;;;;;;4986124;28;20058;-79
2023/07/18 01:45:24;;;;;;;14.75;4.80;;;11.20;99.90;;;;;;4977353;28;20393;-80
2023/07/18 01:47:51;;;;;;;16.80;5.30;;;11.20;99.90;;;;;;4969185;28;20058;-79
2023/07/18 01:50:17;;;;;;;14.52;5.13;;;9.00;99.90;;;;;;4972373;28;20055;-79
2023/07/18 01:52:44;;;;;;;13.48;5.45;;;11.20;99.90;;;;;;4972876;28;20689;-80
2023/07/18 01:55:10;;;;;;;10.50;5.10;;;11.20;99.90;;;;;;4967069;28;20128;-79
2023/07/18 01:57:35;;;;;;;21.83;5.30;;;11.20;99.90;;;;;;4968932;28;20042;-79
2023/07/18 02:00:02;;;;;;;12.50;5.15;;;11.20;99.90;;;;;;4978115;28;20081;-81
2023/07/18 02:02:28;;;;;;;13.27;5.20;;;11.20;99.90;;;;;;4956039;28;20054;-80
2023/07/18 02:04:55;;;;;;;17.05;5.75;;;11.20;99.90;;;;;;4974566;28;20148;-80
2023/07/18 02:07:21;;;;;;;11.80;4.88;;;11.20;99.90;;;;;;4962467;28;20050;-79
2023/07/18 02:09:49;;;;;;;17.13;5.95;;;11.20;99.90;;;;;;4970655;28;20065;-80
2023/07/18 02:12:15;;;;;;;13.02;4.68;;;11.20;99.90;;;;;;4971621;28;20058;-80
2023/07/18 02:14:41;;;;;;;10.73;4.72;;;11.20;99.90;;;;;;4966625;28;20050;-81
2023/07/18 02:17:08;;;;;;;15.88;5.32;;;11.20;99.90;;;;;;4960871;28;20046;-80
2023/07/18 02:19:35;;;;;;;14.82;4.65;;;11.30;99.90;;;;;;4965759;28;20065;-80
2023/07/18 02:22:01;;;;;;;11.13;5.22;;;11.30;99.90;;;;;;4959807;28;20047;-79
2023/07/18 02:24:27;;;;;;;9.82;5.22;;;11.30;99.90;;;;;;4972008;28;20061;-80
2023/07/18 02:26:54;;;;;;;13.23;4.45;;;11.30;99.90;;;;;;4954232;28;20062;-81
2023/07/18 02:29:20;;;;;;;11.43;5.20;;;11.30;99.90;;;;;;4969597;28;20056;-79
2023/07/18 02:31:46;;;;;;;9.77;4.72;;;11.40;99.90;;;;;;4978002;28;20065;-76
2023/07/18 02:34:12;;;;;;;15.57;5.13;;;11.40;99.90;;;;;;4974454;28;20054;-77
2023/07/18 02:36:38;;;;;;;17.05;5.32;;;11.40;99.90;;;;;;4966080;28;20299;-77
2023/07/18 02:39:07;;;;;;;15.55;5.93;;;11.40;99.90;;;;;;4969249;28;20060;-79
2023/07/18 02:41:34;;;;;;;13.43;5.45;;;11.50;99.90;;;;;;4961711;28;20105;-79
2023/07/18 02:44:00;;;;;;;15.18;5.88;;;11.50;99.90;;;;;;4967563;28;20057;-79
2023/07/18 02:46:25;;;;;;;15.23;4.63;;;11.50;99.90;;;;;;4970032;28;20046;-78
2023/07/18 02:48:51;;;;;;;16.05;5.28;;;11.50;99.90;;;;;;4965205;28;20122;-78
2023/07/18 02:51:17;;;;;;;17.15;5.97;;;11.50;99.90;;;;;;4975776;28;20081;-76
2023/07/18 02:53:43;;;;;;;12.55;5.18;;;11.50;99.90;;;;;;4968813;28;20445;-78
2023/07/18 02:56:09;;;;;;;18.83;6.43;;;11.50;99.90;;;;;;4973058;28;20056;-78
2023/07/18 02:58:35;;;;;;;12.68;5.10;;;11.50;99.90;;;;;;4960141;28;20523;-78
2023/07/18 03:01:01;;;;;;;18.30;5.70;;;11.50;99.90;;;;;;4961679;28;20805;-79
2023/07/18 03:03:27;;;;;;;16.42;6.28;;;11.50;99.90;;;;;;4974404;28;20065;-78
2023/07/18 03:05:53;;;;;;;14.70;5.25;;;11.40;99.90;;;;;;4972427;28;20646;-78
2023/07/18 03:08:19;;;;;;;15.93;5.68;;;11.40;99.90;;;;;;4974489;28;20153;-78
2023/07/18 03:10:46;;;;;;;13.60;5.35;;;11.50;99.90;;;;;;4965195;28;20058;-77
2023/07/18 03:13:12;;;;;;;17.60;5.30;;;11.40;99.90;;;;;;4971991;28;20548;-80
2023/07/18 03:15:39;;;;;;;16.00;5.90;;;11.40;99.90;;;;;;4965585;28;20053;-77
2023/07/18 03:18:08;;;;;;;17.30;5.80;;;11.40;99.90;;;;;;4974163;28;20055;-78
2023/07/18 03:20:34;;;;;;;18.67;5.32;;;11.40;99.90;;;;;;4971279;28;20042;-77
2023/07/18 03:23:01;;;;;;;16.13;5.50;;;11.40;99.90;;;;;;4964372;28;20073;-78
2023/07/18 03:25:27;;;;;;;16.02;6.47;;;11.40;99.90;;;;;;4977717;28;20101;-78
2023/07/18 03:27:53;;;;;;;14.63;5.40;;;11.40;99.90;;;;;;4978096;28;20064;-78
2023/07/18 03:30:19;;;;;;;11.38;5.05;;;11.40;99.90;;;;;;4973939;28;20501;-77
2023/07/18 03:32:45;;;;;;;13.98;5.85;;;11.40;99.90;;;;;;4958694;28;20046;-79
2023/07/18 03:35:11;;;;;;;15.57;5.38;;;11.40;99.90;;;;;;4970433;28;20046;-78
2023/07/18 03:37:37;;;;;;;13.80;5.47;;;11.40;99.90;;;;;;4973364;28;20085;-79
2023/07/18 03:40:07;;;;;;;17.80;5.65;;;11.40;99.90;;;;;;4977310;28;20055;-78
2023/07/18 03:42:33;;;;;;;16.02;6.18;;;11.40;99.90;;;;;;4959017;28;20080;-78
2023/07/18 03:44:59;;;;;;;16.42;6.60;;;11.30;99.90;;;;;;4969817;28;20225;-78
2023/07/18 03:47:25;;;;;;;11.57;5.30;;;11.40;99.90;;;;;;4963433;28;20159;-78
2023/07/18 03:49:51;;;;;;;13.68;6.30;;;11.40;99.90;;;;;;4977502;28;20066;-76
2023/07/18 03:52:17;;;;;;;13.20;5.75;;;11.40;99.90;;;;;;4981978;28;20069;-79
2023/07/18 03:54:45;;;;;;;16.17;5.53;;;11.40;99.90;;;;;;4969003;28;20046;-78
2023/07/18 03:57:11;;;;;;;15.30;5.88;;;11.50;99.90;;;;;;4974762;28;20046;-78
2023/07/18 03:59:37;;;;;;;16.27;6.63;;;11.50;99.90;;;;;;4969542;28;20051;-77
2023/07/18 04:02:02;;;;;;;11.98;5.75;;;11.50;99.90;;;;;;4968283;28;20417;-77
2023/07/18 04:04:30;;;;;;;14.57;5.85;;;11.50;99.90;;;;;;4969486;28;20484;-78
2023/07/18 04:06:56;;;;;;;12.35;6.18;;;11.70;99.90;;;;;;4974784;28;20053;-77
2023/07/18 04:09:21;;;;;;;15.10;5.95;;;11.50;99.90;;;;;;4974733;28;20051;-76
2023/07/18 04:11:47;;;;;;;14.00;6.05;;;11.60;99.90;;;;;;4967095;28;20054;-77
2023/07/18 04:14:14;;;;;;;16.20;6.13;;;11.60;99.90;;;;;;4961155;28;20230;-78
2023/07/18 04:16:39;;;;;;;16.98;6.53;;;11.70;99.90;;;;;;4973492;28;20125;-76
2023/07/18 04:19:07;;;;;;;22.02;8.13;;;12.00;99.90;;;;;;4964378;28;20037;-78
2023/07/18 04:21:34;;;;;;;13.77;5.82;;;11.80;99.90;;;;;;4974513;28;20046;-77
2023/07/18 04:23:59;;;;;;;18.50;6.25;;;11.90;99.90;;;;;;4979752;28;20054;-79
2023/07/18 04:26:25;;;;;;;17.60;6.63;;;12.00;99.90;;;;;;4968759;28;20563;-78
2023/07/18 04:28:51;;;;;;;14.63;6.00;;;12.10;99.90;;;;;;4979735;28;20062;-78
2023/07/18 04:31:17;;;;;;;14.02;5.70;;;12.30;99.90;;;;;;4979699;28;20061;-78
2023/07/18 04:33:43;;;;;;;10.15;5.38;;;12.50;99.90;;;;;;4978916;28;20132;-78
2023/07/18 04:36:09;;;;;;;14.68;6.43;;;12.70;99.90;;;;;;4969667;28;20046;-78
2023/07/18 04:38:35;;;;;;;13.73;5.90;;;12.70;99.90;;;;;;4979280;28;20047;-76
2023/07/18 04:41:02;;;;;;;11.77;5.55;;;13.10;99.90;;;;;;4972305;28;20464;-77
2023/07/18 04:43:28;;;;;;;11.90;6.30;;;13.30;99.90;;;;;;4965556;28;20046;-81
2023/07/18 04:45:54;;;;;;;9.38;4.53;;;13.40;99.90;;;;;;4971228;28;20180;-79
2023/07/18 04:48:20;;;;;;;11.45;5.25;;;13.40;99.90;;;;;;4961628;28;20080;-77
2023/07/18 04:50:52;;;;;;;14.05;4.50;;;13.40;99.90;;;;;;4975136;28;20092;-78
2023/07/18 04:53:18;;;;;;;11.23;5.70;;;13.50;99.90;;;;;;4972035;28;20120;-78
2023/07/18 04:55:44;;;;;;;14.27;5.78;;;13.50;99.90;;;;;;4980997;28;20046;-77
2023/07/18 04:58:10;;;;;;;11.52;4.95;;;13.60;99.90;;;;;;4979584;28;20046;-77
2023/07/18 05:00:36;;;;;;;9.25;4.28;;;13.70;99.90;;;;;;4976823;28;20058;-79
2023/07/18 05:03:02;;;;;;;11.05;4.43;;;13.70;99.90;;;;;;4978054;28;20054;-81
2023/07/18 05:05:29;;;;;;;11.13;4.25;;;13.80;99.90;;;;;;4978915;28;20049;-78
2023/07/18 05:07:58;;;;;;;18.10;4.80;;;13.90;99.90;;;;;;4967808;28;20050;-78
2023/07/18 05:10:24;;;;;;;15.07;4.22;;;14.00;99.90;;;;;;4977527;28;20591;-80
2023/07/18 05:12:54;;;;;;;10.60;4.00;;;14.00;99.90;;;;;;4980915;28;20104;-78
2023/07/18 05:15:21;;;;;;;12.02;4.15;;;14.00;99.90;;;;;;4978385;28;20050;-74
2023/07/18 05:17:47;;;;;;;10.00;3.72;;;14.10;99.90;;;;;;4965100;28;20050;-80
2023/07/18 05:20:13;;;;;;;10.00;4.30;;;14.30;99.90;;;;;;4978014;28;20054;-79
2023/07/18 05:22:40;;;;;;;15.60;4.93;;;14.40;99.90;;;;;;4956615;28;20125;-82
2023/07/18 05:25:12;;;;;;;11.52;4.57;;;14.60;99.90;;;;;;4980518;28;20056;-77
2023/07/18 05:27:39;;;;;;;10.27;3.78;;;14.80;99.90;;;;;;4979886;28;20051;-78
2023/07/18 05:30:10;;;;;;;8.32;3.45;;;14.90;99.90;;;;;;4963700;28;20112;-78
2023/07/18 05:32:35;;;;;;;12.38;3.97;;;15.00;99.90;;;;;;4970212;28;20110;-81
2023/07/18 05:35:01;;;;;;;10.55;4.03;;;15.10;99.90;;;;;;4973904;28;20065;-79
2023/07/18 05:37:28;;;;;;;10.02;3.85;;;15.20;99.90;;;;;;4970723;28;20042;-79
2023/07/18 05:39:54;;;;;;;13.40;3.42;;;15.30;99.90;;;;;;4978046;28;20563;-78
2023/07/18 05:42:20;;;;;;;9.07;3.90;;;15.80;99.90;;;;;;4969225;28;20043;-78
2023/07/18 05:44:46;;;;;;;14.63;5.47;;;17.10;99.90;;;;;;4973652;28;20424;-77
2023/07/18 05:47:11;;;;;;;12.45;3.65;;;18.00;99.90;;;;;;4979014;28;20054;-78
2023/07/18 05:49:37;;;;;;;10.13;3.30;;;19.20;99.90;;;;;;4976288;28;20058;-81
2023/07/18 05:52:03;;;;;;;12.00;3.30;;;19.70;99.90;;;;;;4973859;28;20057;-78
2023/07/18 05:54:30;;;;;;;9.65;3.05;;;20.20;99.90;;;;;;4962164;28;20058;-77
2023/07/18 05:57:00;;;;;;;9.82;3.10;;;20.30;99.90;;;;;;4979608;28;20763;-77
2023/07/18 05:59:26;;;;;;;8.02;2.58;;;20.60;99.90;;;;;;4967188;28;20054;-79
2023/07/18 06:01:52;;;;;;;6.57;2.75;;;21.20;99.90;;;;;;4962022;28;20104;-79
2023/07/18 06:04:18;;;;;;;6.43;2.13;;;22.10;99.90;;;;;;4972707;28;20046;-80
2023/07/18 06:06:44;;;;;;;11.57;3.28;;;22.70;99.90;;;;;;4970125;28;20066;-78
2023/07/18 06:09:11;;;;;;;12.13;2.55;;;23.50;98.50;;;;;;4967278;28;20065;-80
2023/07/18 06:11:37;;;;;;;11.10;2.42;;;24.20;96.90;;;;;;4953870;28;20060;-80
2023/07/18 06:14:05;;;;;;;9.52;2.50;;;25.40;94.60;;;;;;4973628;28;20062;-80
2023/07/18 06:16:31;;;;;;;7.53;2.45;;;25.80;93.00;;;;;;4966787;28;20047;-80
2023/07/18 06:18:57;;;;;;;9.05;2.33;;;26.40;91.10;;;;;;4961143;28;20042;-79
2023/07/18 06:21:26;;;;;;;7.15;2.95;;;26.80;89.40;;;;;;4967381;28;20065;-76
2023/07/18 06:23:55;;;;;;;5.47;2.13;;;27.20;86.60;;;;;;4963333;28;20074;-83
2023/07/18 06:26:21;;;;;;;6.22;1.90;;;27.30;85.00;;;;;;4974077;28;20042;-80
2023/07/18 06:28:48;;;;;;;8.43;2.08;;;27.30;83.30;;;;;;4978110;28;20782;-79
2023/07/18 06:31:14;;;;;;;8.45;2.10;;;27.30;82.20;;;;;;4978668;28;20069;-78
2023/07/18 06:33:43;;;;;;;10.20;2.35;;;28.00;79.50;;;;;;4969649;28;20611;-76
2023/07/18 06:36:08;;;;;;;7.93;2.33;;;27.90;78.50;;;;;;4973187;28;20050;-83
2023/07/18 06:38:34;;;;;;;8.55;1.65;;;28.20;77.30;;;;;;4977848;28;20429;-78
2023/07/18 06:41:00;;;;;;;9.98;2.22;;;28.00;77.10;;;;;;4969125;28;20047;-80
2023/07/18 06:43:27;;;;;;;5.72;1.58;;;27.30;76.70;;;;;;4978956;28;20136;-81
2023/07/18 06:45:53;;;;;;;7.93;1.88;;;26.70;77.40;;;;;;4976507;28;20050;-80
2023/07/18 06:48:19;;;;;;;7.03;1.77;;;26.60;78.40;;;;;;4954525;28;20416;-82
2023/07/18 06:50:46;;;;;;;6.85;1.73;;;26.90;77.10;;;;;;4977737;28;20418;-81
2023/07/18 06:53:15;;;;;;;5.53;1.33;;;26.20;77.50;;;;;;4971309;28;20046;-81
2023/07/18 06:55:41;;;;;;;8.85;2.55;;;25.90;78.60;;;;;;4977262;28;20054;-79
2023/07/18 06:58:10;;;;;;;5.82;1.35;;;25.80;79.60;;;;;;4971215;28;20531;-83
2023/07/18 07:00:36;;;;;;;9.20;2.10;;;25.40;80.40;;;;;;4969696;28;20054;-79
2023/07/18 07:03:02;;;;;;;10.30;1.98;;;25.00;80.50;;;;;;4977570;28;20064;-81
2023/07/18 07:05:28;;;;;;;8.50;1.88;;;24.70;81.50;;;;;;4967989;28;20059;-80
2023/07/18 07:07:54;;;;;;;8.10;1.92;;;24.60;82.10;;;;;;4976544;28;20054;-81
2023/07/18 07:10:20;;;;;;;8.43;1.60;;;24.50;81.70;;;;;;4977512;28;20416;-83
2023/07/18 07:12:46;;;;;;;8.10;1.65;;;24.30;82.40;;;;;;4957815;28;20054;-78
2023/07/18 07:15:11;;;;;;;8.65;1.73;;;24.40;83.10;;;;;;4980978;28;20556;-80
2023/07/18 07:17:38;;;;;;;9.02;1.77;;;25.30;82.10;;;;;;4980689;28;20188;-82
2023/07/18 07:20:06;;;;;;;10.13;2.35;;;26.40;79.70;;;;;;4974672;28;20100;-81
2023/07/18 07:22:32;;;;;;;8.93;1.98;;;27.40;78.10;;;;;;4969938;28;20046;-82
2023/07/18 07:24:58;;;;;;;10.13;2.67;;;27.60;77.20;;;;;;4973013;28;20058;-76
2023/07/18 07:27:24;;;;;;;8.70;1.90;;;27.50;76.50;;;;;;4981459;28;20534;-82
2023/07/18 07:29:50;;;;;;;10.20;1.92;;;27.10;76.00;;;;;;4978291;28;20038;-82
2023/07/18 07:32:15;;;;;;;11.73;2.67;;;26.40;77.10;;;;;;4965520;28;20057;-82
2023/07/18 07:34:44;;;;;;;8.40;1.85;;;25.70;77.70;;;;;;4981483;28;20081;-79
2023/07/18 07:37:10;;;;;;;10.35;2.10;;;25.10;79.10;;;;;;4981840;28;20116;-81
2023/07/18 07:39:36;;;;;;;9.73;2.38;;;24.70;80.50;;;;;;4976507;28;20050;-82
2023/07/18 07:42:02;;;;;;;10.35;1.60;;;24.30;81.50;;;;;;4973602;28;20089;-82
2023/07/18 07:44:28;;;;;;;10.20;1.98;;;24.60;82.50;;;;;;4977577;28;20547;-82
2023/07/18 07:46:56;;;;;;;9.50;2.45;;;24.60;82.20;;;;;;4967491;28;20069;-80
2023/07/18 07:49:22;;;;;;;5.93;1.83;;;24.70;81.80;;;;;;4971549;28;20054;-78
2023/07/18 07:51:47;;;;;;;9.13;2.00;;;24.70;81.10;;;;;;4962344;28;20246;-80
2023/07/18 07:54:13;;;;;;;13.43;1.88;;;25.10;80.40;;;;;;4979519;28;20042;-77
2023/07/18 07:56:39;;;;;;;10.90;2.95;;;25.20;80.60;;;;;;4980647;28;20183;-77
2023/07/18 07:59:05;;;;;;;13.02;2.80;;;25.20;80.20;;;;;;4975001;28;20054;-79
2023/07/18 08:01:30;;;;;;;9.93;2.03;;;25.20;80.30;;;;;;4965135;28;20057;-81
2023/07/18 08:03:56;;;;;;;7.00;2.03;;;26.00;79.20;;;;;;4965114;28;20066;-83
2023/07/18 08:06:22;;;;;;;7.93;1.70;;;26.20;78.60;;;;;;4963744;28;20043;-73
2023/07/18 08:08:48;;;;;;;8.90;2.22;;;26.10;78.40;;;;;;4957178;28;20058;-78
2023/07/18 08:11:13;;;;;;;4.78;2.05;;;26.00;77.60;;;;;;4969641;28;20085;-81
2023/07/18 08:14:11;;;;;;;6.80;1.60;;;25.90;78.10;;;;;;4967787;28;20050;-77
2023/07/18 08:24:55;;;;;;;9.65;2.50;;;24.40;80.80;;;;;;4976066;28;20104;-80
2023/07/18 08:31:34;;;;;;;9.55;1.83;;;23.20;84.30;;;;;;4979480;28;20049;-80
2023/07/18 08:34:05;;;;;;;7.28;1.67;;;22.80;86.10;;;;;;4961399;28;20052;-81
2023/07/18 08:36:37;;;;;;;8.85;2.17;;;22.60;86.90;;;;;;4960081;28;20073;-81
2023/07/18 08:39:42;;;;;;;7.50;1.20;;;22.40;87.50;;;;;;4958449;28;20522;-80
2023/07/18 08:42:28;;;;;;;14.65;1.55;;;22.20;87.80;;;;;;4963314;28;20061;-80
2023/07/18 08:45:33;;;;;;;8.45;2.00;;;22.10;88.70;;;;;;4960017;28;20542;-80
2023/07/18 08:48:13;;;;;;;7.32;1.45;;;22.00;88.90;;;;;;4973699;28;20085;-81
2023/07/18 08:51:25;;;;;;;10.75;2.78;;;21.90;90.10;;;;;;4978986;28;20502;-81
2023/07/18 08:54:35;;;;;;;14.07;1.85;;;21.90;90.20;;;;;;4979601;28;20058;-82
2023/07/18 08:57:54;;;;;;;8.82;2.08;;;21.90;90.70;;;;;;4963594;28;20057;-81
2023/07/18 09:00:25;;;;;;;10.18;1.85;;;22.10;90.50;;;;;;4984683;28;20054;-80
2023/07/18 09:02:51;;;;;;;11.27;1.90;;;22.60;90.40;;;;;;4968748;28;20051;-80
2023/07/18 09:05:48;;;;;;;9.07;2.15;;;23.90;90.20;;;;;;4973000;28;20065;-81
2023/07/18 09:12:00;;;;;;;10.93;2.35;;;27.60;82.50;;;;;;4970786;28;20105;-81
2023/07/18 09:14:34;;;;;;;7.30;1.88;;;28.80;77.60;;;;;;4968590;28;20093;-82
2023/07/18 09:17:04;;;;;;;6.95;1.92;;;28.70;76.00;;;;;;4963708;28;20042;-83
2023/07/18 09:19:45;;;;;;;7.93;2.55;;;28.90;74.60;;;;;;4967366;28;20874;-83
2023/07/18 09:22:17;;;;;;;9.23;2.00;;;28.30;73.90;;;;;;4953225;28;20057;-82
2023/07/18 09:24:43;;;;;;;;;;;27.60;74.10;;;;;;4968714;28;20054;-81
2023/07/18 09:27:19;;;;;;;7.80;1.70;;;26.90;76.40;;;;;;4960398;28;19926;-82
2023/07/18 09:29:46;;;;;;;11.75;2.70;;;26.30;75.70;;;;;;4971528;28;20132;-82
2023/07/18 09:32:21;;;;;;;9.27;1.80;;;25.70;76.40;;;;;;4967796;28;20061;-82
2023/07/18 09:35:02;;;;;;;9.70;2.13;;;25.30;77.70;;;;;;4977185;28;20050;-80
2023/07/18 09:37:51;;;;;;;8.32;1.83;;;25.10;80.20;;;;;;4957589;28;20201;-81
2023/07/18 09:44:04;;;;;;;4.35;1.00;;;24.50;81.60;;;;;;4980304;28;20096;-83
2023/07/18 09:50:23;;;;;;;7.00;1.00;;;23.60;84.20;;;;;;4974969;28;20042;-82
2023/07/18 09:57:40;;;;;;;5.88;0.90;;;23.10;87.00;;;;;;4980878;28;20049;-81
2023/07/18 10:00:21;;;;;;;7.93;1.20;;;23.10;88.40;;;;;;4943289;28;20063;-78
2023/07/18 10:02:56;;;;;;;7.88;1.25;;;23.40;89.10;;;;;;4962776;28;20049;-81
2023/07/18 10:05:28;;;;;;;7.93;1.20;;;21.20;88.00;;;;;;4964941;28;20839;-79
2023/07/18 10:08:09;;;;;;;7.68;0.90;;;22.80;89.20;;;;;;4952231;28;21091;-80
2023/07/18 10:11:09;;;;;;;6.18;1.30;;;22.70;89.70;;;;;;4962794;28;20050;-80
2023/07/18 10:14:04;;;;;;;5.95;1.00;;;22.50;90.30;;;;;;4965197;28;20054;-83
2023/07/18 10:16:43;;;;;;;8.48;1.20;;;22.40;90.50;;;;;;4982917;28;20271;-82
2023/07/18 10:19:19;;;;;;;7.32;1.17;;;22.30;90.70;;;;;;4945409;28;20049;-80
2023/07/18 10:21:55;;;;;;;9.70;1.20;;;22.20;91.00;;;;;;4958582;28;20057;-80
2023/07/18 10:24:31;;;;;;;6.68;1.35;;;22.10;91.40;;;;;;4946255;28;20150;-81
2023/07/18 10:27:08;;;;;;;10.80;1.20;;;22.10;91.50;;;;;;4948262;28;20053;-80
2023/07/18 10:30:04;;;;;;;9.23;1.10;;;22.20;91.90;;;;;;4976413;28;20064;-81
2023/07/18 10:32:37;;;;;;;7.18;0.85;;;22.10;91.90;;;;;;4950367;28;20046;-81
2023/07/18 10:35:33;;;;;;;4.85;0.93;;;22.50;92.30;;;;;;4948579;28;20341;-81
2023/07/18 10:38:06;;;;;;;6.10;1.33;;;19.90;91.40;;;;;;4945303;28;20133;-81
2023/07/18 10:40:36;;;;;;;5.55;0.90;;;23.20;92.40;;;;;;4959073;28;20071;-83
2023/07/18 10:43:07;;;;;;;4.85;0.73;;;23.40;91.70;;;;;;4956123;28;20656;-83
2023/07/18 10:45:40;;;;;;;5.72;0.50;;;23.70;91.20;;;;;;4957533;28;20066;-84
2023/07/18 10:48:10;;;;;;;4.65;0.75;;;24.00;90.40;;;;;;4957274;28;20047;-83
2023/07/18 10:50:36;;;;;;;4.05;0.65;;;24.20;88.40;;;;;;4956807;28;20050;-83
2023/07/18 10:53:03;;;;;;;5.65;0.70;;;24.40;87.60;;;;;;4958441;28;20051;-82
2023/07/18 10:55:29;;;;;;;6.43;0.90;;;24.70;87.00;;;;;;4958526;28;20046;-81
2023/07/18 10:57:55;;;;;;;4.70;0.63;;;24.70;86.30;;;;;;4956798;28;20069;-82
2023/07/18 11:00:24;;;;;;;4.63;0.50;;;24.70;85.80;;;;;;4944770;28;20061;-81
2023/07/18 11:02:50;;;;;;;4.45;0.90;;;24.70;85.50;;;;;;4925087;28;20046;-83
2023/07/18 11:05:16;;;;;;;4.22;0.77;;;24.80;84.80;;;;;;4950948;28;20191;-83
2023/07/18 11:07:46;;;;;;;4.70;0.50;;;24.80;83.80;;;;;;4931139;28;20050;-79
2023/07/18 11:10:13;;;;;;;3.17;0.45;;;24.70;82.80;;;;;;4931452;28;20153;-82
2023/07/18 11:12:40;;;;;;;4.00;0.38;;;24.60;82.10;;;;;;4935761;28;20065;-81
2023/07/18 11:15:09;;;;;;;4.20;0.40;;;24.60;83.70;;;;;;4925124;28;20050;-83
2023/07/18 11:17:35;;;;;;;4.55;0.45;;;24.50;84.50;;;;;;4920608;28;20070;-83
2023/07/18 11:20:12;;;;;;;4.97;0.40;;;24.50;85.10;;;;;;4934937;28;20054;-81
2023/07/18 11:22:50;;;;;;;3.30;0.40;;;24.50;83.90;;;;;;4921149;28;20212;-82
2023/07/18 11:25:29;;;;;;;4.18;0.35;;;24.60;83.10;;;;;;4926544;28;20061;-82
2023/07/18 11:28:04;;;;;;;3.50;0.50;;;25.60;81.70;;;;;;4926372;28;20061;-80
2023/07/18 11:30:37;;;;;;;3.88;0.50;;;21.90;79.80;;;;;;4945359;28;20058;-83
2023/07/18 11:33:14;;;;;;;2.75;0.43;;;24.60;81.70;;;;;;4940129;28;20212;-78
2023/07/18 11:40:02;;;;;;;3.67;0.50;;;24.40;83.60;;;;;;4964124;28;20132;-82
2023/07/18 11:42:49;;;;;;;4.13;0.65;;;24.50;84.70;;;;;;4945160;28;20066;-82
2023/07/18 11:45:17;;;;;;;4.93;0.25;;;24.80;83.80;;;;;;4956230;28;20049;-83
2023/07/18 11:47:53;;;;;;;4.00;0.30;;;24.80;82.50;;;;;;4953384;28;20062;-79
2023/07/18 11:50:20;;;;;;;4.10;0.30;;;24.80;80.80;;;;;;4956533;28;20718;-82
2023/07/18 11:52:48;;;;;;;2.60;0.20;;;24.80;81.00;;;;;;4959644;28;20109;-82
2023/07/18 11:55:15;;;;;;;3.45;0.50;;;24.80;81.00;;;;;;4956507;28;20090;-79
2023/07/18 11:57:41;;;;;;;1.85;0.40;;;24.70;81.20;;;;;;4962695;28;20285;-82
2023/07/18 12:00:10;;;;;;;5.40;0.73;;;24.70;82.30;;;;;;4959674;28;20124;-81
2023/07/18 12:02:52;;;;;;;3.22;0.30;;;24.80;81.40;;;;;;4970085;28;20160;-75
2023/07/18 12:05:19;;;;;;;6.55;0.30;;;24.90;79.80;;;;;;4959715;28;20068;-83
2023/07/18 12:07:45;;;;;;;2.58;0.30;;;25.10;78.30;;;;;;4964000;28;20734;-80
2023/07/18 12:10:11;;;;;;;3.67;0.28;;;25.20;77.10;;;;;;4953829;28;20112;-82
2023/07/18 12:12:41;;;;;;;2.75;0.30;;;24.70;76.40;;;;;;4957708;28;20085;-80
2023/07/18 12:15:08;;;;;;;1.83;0.20;;;25.20;76.90;;;;;;4942469;28;20058;-83
2023/07/18 12:17:35;;;;;;;3.10;0.47;;;25.00;77.30;;;;;;4941887;28;20081;-79
2023/07/18 12:20:01;;;;;;;1.80;0.30;;;25.00;76.60;;;;;;4948194;28;20145;-82
2023/07/18 12:22:27;;;;;;;6.15;0.63;;;25.00;76.80;;;;;;4960333;28;20062;-81
2023/07/18 12:24:53;;;;;;;2.20;0.30;;;25.00;77.70;;;;;;4941425;28;20059;-80
2023/07/18 12:27:19;;;;;;;2.78;0.75;;;25.00;78.10;;;;;;4964880;28;20050;-82
2023/07/18 12:29:45;;;;;;;3.00;0.30;;;24.90;77.40;;;;;;4967551;28;21181;-80
2023/07/18 12:32:13;;;;;;;2.55;0.20;;;24.80;78.20;;;;;;4965927;28;20127;-82
2023/07/18 12:34:40;;;;;;;2.65;0.25;;;24.70;78.90;;;;;;4975377;28;20098;-82
2023/07/18 12:37:06;;;;;;;1.33;0.10;;;24.60;77.50;;;;;;4970486;28;21340;-82
2023/07/18 12:39:33;;;;;;;3.42;0.57;;;24.30;77.70;;;;;;4950408;28;20165;-82
2023/07/18 12:41:59;;;;;;;1.52;0.20;;;24.10;78.70;;;;;;4954758;28;20050;-82
2023/07/18 12:44:40;;;;;;;2.58;0.20;;;24.00;79.20;;;;;;4953128;28;20046;-81
2023/07/18 12:47:07;;;;;;;1.75;0.30;;;23.80;79.50;;;;;;4964972;28;20532;-82
2023/07/18 12:49:35;;;;;;;2.40;0.30;;;21.60;78.60;;;;;;4960186;28;20353;-81
2023/07/18 12:52:01;;;;;;;2.20;0.20;;;23.60;80.30;;;;;;4945971;28;20053;-81
2023/07/18 12:54:27;;;;;;;2.75;0.30;;;23.50;80.20;;;;;;4948432;28;20065;-84
2023/07/18 12:56:53;;;;;;;1.60;0.32;;;24.60;81.30;;;;;;4961093;28;20061;-80
2023/07/18 12:59:19;;;;;;;2.50;0.30;;;23.30;81.00;;;;;;4958373;28;20066;-78
2023/07/18 13:01:45;;;;;;;2.65;0.38;;;23.20;81.10;;;;;;4944335;28;20061;-80
2023/07/18 13:04:10;;;;;;;2.90;0.30;;;23.10;81.80;;;;;;4951026;28;20710;-81
2023/07/18 13:06:36;;;;;;;1.35;0.22;;;22.90;82.30;;;;;;4959170;28;20056;-81
2023/07/18 13:09:02;;;;;;;1.85;0.45;;;22.80;82.60;;;;;;4958772;28;20062;-81
2023/07/18 13:11:29;;;;;;;2.83;0.30;;;22.60;83.50;;;;;;4959235;28;20069;-80
2023/07/18 13:13:55;;;;;;;2.92;0.47;;;22.40;84.50;;;;;;4967809;28;20553;-80
2023/07/18 13:16:21;;;;;;;1.33;0.25;;;22.30;85.10;;;;;;4978522;28;20054;-80
2023/07/18 13:18:48;;;;;;;3.88;0.30;;;22.10;85.60;;;;;;4981055;28;20083;-78
2023/07/18 13:21:14;;;;;;;2.88;0.30;;;22.00;86.20;;;;;;4972185;28;20102;-81
2023/07/18 13:23:40;;;;;;;5.20;0.40;;;21.90;86.30;;;;;;4978441;28;20077;-79
2023/07/18 13:26:06;;;;;;;3.67;0.43;;;21.90;86.70;;;;;;4954303;28;20612;-80